الصفحة الرئيسية
METAR-TAF:

METAR-TAF

مطار :

مطار ديوري حماني

نيامي, النيجر

دائرة عرض: 13-29N, خط طول: 002-10E, ارتفاع: 223 متر

مراقبة الطقس الحالي

تاريخ ووقت الإصدار 33 دقيقة قبل الساعة 13:00UTC
ريح 5 عقدة من الغرب/الجنوب الغربي, الاتجاه يتراوح بين الجنوب و الغرب/الشمال الغربي
درجة الحرارة 39°درجة مئوية
الرطوبة 24%
ضغط 1009 hPa
الرؤية 10 كم أو أكثر
غيوم قليلة على ارتفاع 2000 قدم

METAR: DRRN 171300Z 24005KT 180V300 9999 FEW020 39/15 Q1009 NOSIG

زمن: 14:33 (13:33 UTC)

توقعات

تاريخ ووقت الإصدار 2ساعات و 33 دقيقة قبل الساعة 11:00UTC
التوقعات صالحة من17 الساعة 12 UTC إلى 18 الساعة 18 UTC
ريح 8 عقدة من الغرب/الجنوب الغربي
الرؤية 10 كم أو أكثر
غيوم قليلة على ارتفاع 3000 قدم
نظرية الاحتمالات 30% :
مؤقت
من 17 الساعة 16 UTC إلى 17 الساعة 22 UTC
ريح 20 عقدة من الشرق
الرؤية: 2000 متر
غيوم قليلة على ارتفاع 3000 قدم
غيوم قليلة على ارتفاع 3300 قدم, مزنة ركامية.
هبوب الغبار, عاصفة رعدية, مطر خفيف

TAF: DRRN 171100Z 1712/1818 25008KT 9999 FEW030 PROB30 TEMPO 1716/1722 08020KT 2000 BLDU -TSRA FEW030 FEW033CB

أرصاد الطقس والتوقعات من أكثر من 4000 مطار (تقارير الطقس للمطار METAR والتنبؤ بالطقس بالمطارTAF).

المحطات المتاحة هي النقط الصفراء والحمراء على الخريطة.

حرك المؤشر فوق النقطة لمعرفة اسم المحطة.

ثم انقر لمعرفة أرصاد وتوقعات الطقس.

لتغيير الخارطة: اضغط على الأزرار الخضراء مع رمز الصليب الأسود للتكبير. على الزر الأخضر مع شرطة للتصغير، أو على الأسهم الخضراء للخرائط المجاورة.


METAR-TAF: